This is the latest recevied weather packets stored in our database for station/object EA3IBE-10. If no packets are shown the sender has not sent any weather packets the latest 10 day(s).
| Time | Temp. | Humidity | Pressure | Rain* | Wind** | Luminosity | Snow |
|---|---|---|---|---|---|---|---|
| 1777718965 | 24.44° C | 46% | 1020.8 hPa | - | - | - | - |
| 1777716565 | 21.67° C | 54% | 1021.1 hPa | - | - | - | - |
| 1777714165 | 20.56° C | 58% | 1021.4 hPa | - | - | - | - |
| 1777711765 | 19.44° C | 61% | 1021.6 hPa | - | - | - | - |
| 1777709365 | 18.33° C | 70% | 1021.6 hPa | - | - | - | - |
| 1777706965 | 18.89° C | 75% | 1021.4 hPa | - | - | - | - |
| 1777704565 | 17.78° C | 85% | 1021.6 hPa | - | - | - | - |
| 1777702165 | 17.78° C | 96% | 1021.3 hPa | - | - | - | - |
| 1777699764 | 16.67° C | 100% | 1021.2 hPa | - | - | - | - |
| 1777697364 | 16.67° C | 100% | 1021 hPa | - | - | - | - |
| 1777694964 | 16.67° C | 100% | 1020.9 hPa | - | - | - | - |
| 1777692564 | 16.67° C | 100% | 1020.9 hPa | - | - | - | - |
| 1777690164 | 16.67° C | 100% | 1021.1 hPa | - | - | - | - |
| 1777687764 | 16.67° C | 100% | 1021.1 hPa | - | - | - | - |
| 1777685364 | 16.11° C | 100% | 1021.2 hPa | - | - | - | - |
| 1777682964 | 16.11° C | 100% | 1021.6 hPa | - | - | - | - |
| 1777680564 | 15.56° C | 100% | 1022 hPa | - | - | - | - |
| 1777678164 | 15° C | 100% | 1022.3 hPa | - | - | - | - |
| 1777675764 | 15° C | 100% | 1022.2 hPa | - | - | - | - |
| 1777673364 | 15.56° C | 100% | 1022.1 hPa | - | - | - | - |
| 1777670963 | 15.56° C | 100% | 1022.2 hPa | - | - | - | - |
| 1777668563 | 16.11° C | 100% | 1022.2 hPa | - | - | - | - |
| 1777666163 | 16.67° C | 100% | 1022 hPa | - | - | - | - |
| 1777663775 | 17.22° C | 100% | 1021.4 hPa | - | - | - | - |
| 1777663763 | 17.22° C | 100% | 1021.4 hPa | - | - | - | - |
* Rain since midnight (hover to see other rain measurements)
** Current wind speed in m/s (hover to see current wind gust speed)